createdAt,value
2019-03-11T00:00:19.961Z,4.70
2019-03-11T00:02:48.498Z,4.50
2019-03-11T00:05:16.972Z,4.60
2019-03-11T00:07:45.425Z,4.60
2019-03-11T00:10:13.919Z,4.60
2019-03-11T00:12:42.353Z,4.70
2019-03-11T00:15:10.792Z,4.70
2019-03-11T00:17:39.244Z,4.80
2019-03-11T00:20:10.396Z,4.80
2019-03-11T00:22:38.811Z,4.80
2019-03-11T00:25:13.250Z,4.80
2019-03-11T00:27:41.703Z,4.90
2019-03-11T00:30:12.074Z,5.00
2019-03-11T00:32:40.508Z,5.00
2019-03-11T00:35:11.533Z,5.10
2019-03-11T00:37:39.949Z,5.10
2019-03-11T00:40:13.327Z,5.00
2019-03-11T00:42:41.778Z,5.00
2019-03-11T00:45:12.342Z,4.90
2019-03-11T00:47:40.767Z,4.90
2019-03-11T00:50:12.088Z,4.80
2019-03-11T00:52:40.595Z,4.70
2019-03-11T00:55:12.852Z,4.70
2019-03-11T00:57:41.331Z,4.70
2019-03-11T01:00:32.947Z,4.70
2019-03-11T01:03:01.464Z,4.60
2019-03-11T01:05:29.982Z,4.60
2019-03-11T01:07:58.408Z,4.60
2019-03-11T01:10:26.835Z,4.60
2019-03-11T01:12:55.268Z,4.60
2019-03-11T01:15:26.354Z,4.50
2019-03-11T01:17:54.827Z,4.50
2019-03-11T01:20:23.277Z,4.50
2019-03-11T01:22:52.006Z,4.40
2019-03-11T01:25:20.444Z,4.40
2019-03-11T01:27:48.866Z,4.30
2019-03-11T01:30:17.767Z,4.30
2019-03-11T01:32:46.172Z,4.30
2019-03-11T01:35:15.763Z,4.30
2019-03-11T01:37:44.194Z,4.40
2019-03-11T01:40:17.604Z,4.40
2019-03-11T01:42:46.024Z,4.30
2019-03-11T01:45:16.698Z,4.40
2019-03-11T01:47:45.214Z,4.40
2019-03-11T01:50:16.338Z,4.40
2019-03-11T01:52:44.787Z,4.50
2019-03-11T01:55:16.419Z,4.50
2019-03-11T01:57:44.850Z,4.50
2019-03-11T02:00:18.461Z,4.60
2019-03-11T02:02:47.032Z,4.60
2019-03-11T02:05:16.666Z,4.50
2019-03-11T02:07:45.091Z,4.60
2019-03-11T02:10:17.492Z,4.60
2019-03-11T02:12:45.982Z,4.60
2019-03-11T02:15:18.733Z,4.60
2019-03-11T02:17:47.225Z,4.70
2019-03-11T02:20:17.662Z,4.60
2019-03-11T02:22:46.083Z,4.60
2019-03-11T02:25:15.297Z,4.70
2019-03-11T02:27:43.975Z,4.70
2019-03-11T02:30:17.341Z,4.70
2019-03-11T02:32:45.772Z,4.70
2019-03-11T02:35:21.054Z,4.70
2019-03-11T02:37:49.482Z,4.70
2019-03-11T02:40:18.978Z,4.70
2019-03-11T02:42:47.486Z,4.70
2019-03-11T02:45:15.995Z,4.70
2019-03-11T02:47:44.484Z,4.70
2019-03-11T02:50:14.202Z,4.80
2019-03-11T02:52:42.639Z,4.80
2019-03-11T02:55:11.276Z,4.80
2019-03-11T02:57:39.723Z,4.90
2019-03-11T03:00:20.525Z,4.90
2019-03-11T03:03:06.819Z,4.90
2019-03-11T03:05:36.951Z,5.00
2019-03-11T03:08:05.468Z,5.00
2019-03-11T03:10:34.874Z,5.00
2019-03-11T03:13:03.367Z,5.10
2019-03-11T03:15:32.958Z,5.10
2019-03-11T03:18:01.487Z,5.10
2019-03-11T03:20:31.264Z,5.10
2019-03-11T03:22:59.696Z,5.10
2019-03-11T03:25:33.729Z,5.20
2019-03-11T03:27:58.435Z,5.20
2019-03-11T03:30:29.725Z,5.10
2019-03-11T03:32:58.365Z,5.20
2019-03-11T03:35:26.923Z,5.10
2019-03-11T03:37:55.419Z,5.10
2019-03-11T03:40:23.822Z,5.10
2019-03-11T03:42:52.579Z,5.10
2019-03-11T03:45:28.568Z,5.10
2019-03-11T03:47:59.374Z,5.10
2019-03-11T03:50:29.956Z,5.20
2019-03-11T03:52:58.476Z,5.30
2019-03-11T03:55:29.864Z,5.30
2019-03-11T03:57:58.337Z,5.30
2019-03-11T04:00:26.754Z,5.30
2019-03-11T04:02:55.250Z,5.20
2019-03-11T04:05:24.869Z,5.20
2019-03-11T04:07:53.584Z,5.20
2019-03-11T04:10:22.044Z,5.10
2019-03-11T04:12:50.612Z,5.00
2019-03-11T04:15:20.516Z,5.00
2019-03-11T04:17:48.942Z,4.90
2019-03-11T04:20:22.899Z,5.00
2019-03-11T04:22:51.510Z,5.00
2019-03-11T04:25:19.990Z,4.90
2019-03-11T04:27:48.396Z,4.50
2019-03-11T04:30:24.325Z,4.20
2019-03-11T04:32:52.742Z,4.10
2019-03-11T04:35:21.203Z,4.10
2019-03-11T04:37:49.671Z,4.20
2019-03-11T04:40:18.279Z,4.50
2019-03-11T04:42:46.778Z,4.70
2019-03-11T04:45:16.541Z,4.70
2019-03-11T04:47:45.131Z,4.70
2019-03-11T04:50:17.211Z,4.70
2019-03-11T04:52:45.882Z,4.80
2019-03-11T04:55:15.606Z,4.80
2019-03-11T04:57:52.283Z,4.80
2019-03-11T05:00:26.425Z,4.50
2019-03-11T05:02:54.842Z,4.40
2019-03-11T05:05:26.015Z,4.30
2019-03-11T05:07:54.484Z,4.30
2019-03-11T05:10:22.928Z,4.30
2019-03-11T05:12:51.345Z,4.30
2019-03-11T05:15:21.261Z,4.40
2019-03-11T05:17:49.771Z,4.10
2019-03-11T05:20:18.344Z,4.00
2019-03-11T05:22:46.820Z,4.10
2019-03-11T05:25:17.865Z,3.90
2019-03-11T05:27:46.359Z,3.50
2019-03-11T05:30:19.535Z,3.20
2019-03-11T05:32:48.071Z,2.90
2019-03-11T05:35:16.591Z,2.30
2019-03-11T05:37:45.102Z,2.10
2019-03-11T05:40:14.342Z,2.30
2019-03-11T05:42:42.779Z,2.30
2019-03-11T05:45:20.817Z,2.20
2019-03-11T05:47:49.260Z,2.20
2019-03-11T05:50:18.640Z,2.30
2019-03-11T05:52:47.061Z,2.30
2019-03-11T05:55:16.757Z,2.30
2019-03-11T05:57:45.218Z,2.30
2019-03-11T06:00:26.034Z,2.30
2019-03-11T06:02:54.536Z,2.30
2019-03-11T06:05:25.641Z,2.40
2019-03-11T06:07:54.060Z,2.50
2019-03-11T06:10:22.486Z,2.40
2019-03-11T06:12:50.913Z,2.10
2019-03-11T06:15:19.379Z,1.60
2019-03-11T06:17:47.857Z,1.40
2019-03-11T06:20:28.013Z,1.40
2019-03-11T06:22:56.750Z,1.40
2019-03-11T06:25:25.167Z,1.50
2019-03-11T06:27:53.610Z,1.50
2019-03-11T06:30:23.400Z,1.60
2019-03-11T06:32:51.847Z,1.70
2019-03-11T06:35:20.252Z,1.70
2019-03-11T06:37:48.647Z,1.80
2019-03-11T06:40:17.153Z,1.90
2019-03-11T06:42:45.607Z,1.90
2019-03-11T06:45:14.383Z,2.00
2019-03-11T06:47:42.811Z,2.10
2019-03-11T06:50:14.043Z,2.20
2019-03-11T06:52:42.464Z,2.30
2019-03-11T06:55:12.474Z,2.40
2019-03-11T06:57:40.894Z,2.50
2019-03-11T07:00:15.203Z,2.60
2019-03-11T07:02:43.746Z,2.80
2019-03-11T07:05:19.869Z,3.00
2019-03-11T07:07:42.494Z,3.20
2019-03-11T07:10:16.282Z,3.40
2019-03-11T07:12:44.675Z,3.70
2019-03-11T07:15:14.773Z,4.10
2019-03-11T07:17:43.176Z,4.30
2019-03-11T07:20:13.917Z,4.30
2019-03-11T07:22:42.357Z,4.30
2019-03-11T07:25:12.086Z,4.30
2019-03-11T07:27:40.515Z,4.50
2019-03-11T07:30:14.213Z,4.70
2019-03-11T07:32:42.634Z,4.90
2019-03-11T07:35:11.139Z,4.70
2019-03-11T07:37:39.603Z,4.50
2019-03-11T07:40:13.231Z,4.40
2019-03-11T07:42:41.681Z,4.40
2019-03-11T07:45:11.638Z,4.40
2019-03-11T07:47:40.135Z,4.40
2019-03-11T07:50:15.482Z,4.40
2019-03-11T07:52:43.922Z,4.40
2019-03-11T07:55:16.248Z,4.40
2019-03-11T07:57:44.679Z,4.30
2019-03-11T08:00:18.715Z,4.30
2019-03-11T08:02:47.269Z,4.60
2019-03-11T08:05:15.946Z,5.00
2019-03-11T08:07:44.396Z,5.20
2019-03-11T08:10:25.803Z,5.40
2019-03-11T08:12:54.210Z,5.60
2019-03-11T08:15:23.779Z,5.60
2019-03-11T08:17:52.232Z,5.60
2019-03-11T08:20:23.593Z,5.50
2019-03-11T08:22:52.229Z,6.00
2019-03-11T08:25:20.700Z,5.90
2019-03-11T08:27:49.172Z,5.90
2019-03-11T08:30:23.545Z,5.70
2019-03-11T08:32:52.037Z,6.00
2019-03-11T08:35:20.430Z,5.80
2019-03-11T08:37:48.853Z,5.50
2019-03-11T08:40:18.272Z,5.40
2019-03-11T08:42:46.699Z,5.40
2019-03-11T08:45:16.353Z,5.20
2019-03-11T08:47:44.766Z,5.10
2019-03-11T08:50:14.804Z,4.90
2019-03-11T08:52:43.233Z,4.90
2019-03-11T08:55:14.484Z,5.00
2019-03-11T08:57:42.995Z,5.40
2019-03-11T09:00:16.623Z,5.60
2019-03-11T09:02:45.049Z,5.90
2019-03-11T09:05:15.512Z,6.00
2019-03-11T09:07:44.014Z,5.70
2019-03-11T09:10:16.878Z,5.30
2019-03-11T09:12:45.318Z,5.20
2019-03-11T09:15:20.864Z,4.90
2019-03-11T09:17:49.496Z,5.20
2019-03-11T09:20:18.679Z,5.60
2019-03-11T09:22:47.258Z,5.80
2019-03-11T09:25:18.448Z,5.90
2019-03-11T09:27:46.908Z,6.10
2019-03-11T09:30:20.498Z,5.90
2019-03-11T09:32:48.928Z,6.10
2019-03-11T09:35:17.448Z,6.00
2019-03-11T09:37:45.916Z,6.00
2019-03-11T09:40:16.383Z,5.90
2019-03-11T09:42:44.788Z,5.90
2019-03-11T09:45:16.255Z,6.00
2019-03-11T09:47:44.775Z,5.80
2019-03-11T09:50:17.965Z,5.80
2019-03-11T09:52:46.714Z,5.60
2019-03-11T09:55:17.045Z,5.30
2019-03-11T09:57:45.564Z,5.20
2019-03-11T10:00:34.072Z,5.40
2019-03-11T10:03:02.488Z,5.60
2019-03-11T10:05:30.987Z,5.50
2019-03-11T10:07:59.627Z,5.80
2019-03-11T10:10:29.272Z,6.10
2019-03-11T10:12:57.775Z,6.10
2019-03-11T10:15:27.913Z,5.70
2019-03-11T10:17:56.414Z,5.50
2019-03-11T10:20:26.495Z,5.30
2019-03-11T10:22:55.026Z,5.40
2019-03-11T10:25:25.192Z,5.70
2019-03-11T10:27:53.631Z,5.80
2019-03-11T10:30:22.994Z,5.70
2019-03-11T10:32:51.491Z,5.70
2019-03-11T10:35:31.421Z,5.80
2019-03-11T10:37:50.509Z,5.80
2019-03-11T10:40:23.910Z,5.60
2019-03-11T10:42:52.494Z,5.50
2019-03-11T10:45:31.150Z,5.70
2019-03-11T10:47:53.953Z,5.90
2019-03-11T10:50:23.578Z,6.00
2019-03-11T10:52:52.236Z,6.20
2019-03-11T10:55:24.836Z,6.40
2019-03-11T10:57:53.362Z,6.10
2019-03-11T11:00:25.507Z,5.90
2019-03-11T11:02:54.027Z,5.90
2019-03-11T11:05:25.952Z,5.90
2019-03-11T11:07:54.458Z,5.80
2019-03-11T11:10:22.935Z,5.90
2019-03-11T11:12:51.797Z,6.00
2019-03-11T11:15:25.379Z,5.80
2019-03-11T11:17:53.960Z,5.80
2019-03-11T11:20:23.277Z,5.90
2019-03-11T11:22:52.458Z,5.90
2019-03-11T11:25:24.843Z,5.90
2019-03-11T11:27:53.275Z,6.10
2019-03-11T11:30:25.684Z,6.00
2019-03-11T11:32:54.391Z,5.90
2019-03-11T11:35:25.796Z,5.80
2019-03-11T11:37:58.576Z,5.80
2019-03-11T11:40:31.426Z,6.00
2019-03-11T11:42:59.888Z,6.30
2019-03-11T11:45:29.548Z,6.70
2019-03-11T11:47:58.143Z,6.90
2019-03-11T11:50:29.590Z,6.70
2019-03-11T11:52:58.129Z,6.50
2019-03-11T11:55:26.599Z,6.30
2019-03-11T11:57:55.127Z,6.40
2019-03-11T12:00:30.150Z,6.30
2019-03-11T12:02:58.560Z,6.00
2019-03-11T12:05:27.122Z,6.10
2019-03-11T12:07:55.785Z,6.30
2019-03-11T12:10:29.831Z,6.50
2019-03-11T12:12:58.292Z,6.40
2019-03-11T12:15:26.784Z,6.60
2019-03-11T12:17:55.202Z,6.60
2019-03-11T12:20:24.958Z,6.50
2019-03-11T12:22:53.567Z,6.40
2019-03-11T12:25:23.676Z,6.30
2019-03-11T12:27:54.153Z,6.30
2019-03-11T12:30:29.278Z,6.40
2019-03-11T12:32:57.835Z,6.50
2019-03-11T12:35:26.623Z,6.50
2019-03-11T12:37:55.589Z,6.50
2019-03-11T12:40:24.179Z,6.60
2019-03-11T12:42:52.679Z,6.70
2019-03-11T12:45:22.336Z,6.50
2019-03-11T12:47:50.868Z,6.40
2019-03-11T12:50:32.241Z,6.50
2019-03-11T12:53:00.698Z,6.60
2019-03-11T12:55:29.243Z,6.50
2019-03-11T12:57:57.727Z,6.40
2019-03-11T13:00:27.313Z,6.40
2019-03-11T13:02:55.719Z,6.20
2019-03-11T13:05:27.039Z,6.20
2019-03-11T13:07:55.519Z,6.50
2019-03-11T13:10:26.014Z,6.70
2019-03-11T13:12:54.680Z,6.90
2019-03-11T13:15:23.296Z,6.90
2019-03-11T13:17:51.773Z,6.70
2019-03-11T13:20:29.151Z,6.80
2019-03-11T13:22:57.642Z,6.90
2019-03-11T13:25:29.003Z,7.10
2019-03-11T13:27:57.463Z,7.20
2019-03-11T13:30:27.285Z,7.20
2019-03-11T13:32:55.777Z,7.20
2019-03-11T13:35:25.547Z,7.10
2019-03-11T13:37:53.968Z,6.70
2019-03-11T13:40:22.426Z,6.40
2019-03-11T13:42:50.864Z,6.50
2019-03-11T13:45:19.606Z,6.40
2019-03-11T13:47:48.299Z,6.60
2019-03-11T13:50:18.054Z,6.80
2019-03-11T13:52:46.855Z,6.90
2019-03-11T13:55:18.523Z,7.20
2019-03-11T13:57:46.943Z,7.50
2019-03-11T14:00:20.205Z,7.80
2019-03-11T14:02:49.165Z,7.60
2019-03-11T14:05:17.779Z,7.50
2019-03-11T14:07:46.202Z,7.50
2019-03-11T14:10:16.405Z,7.30
2019-03-11T14:12:45.496Z,7.40
2019-03-11T14:15:22.467Z,7.60
2019-03-11T14:17:50.980Z,7.60
2019-03-11T14:20:22.222Z,7.60
2019-03-11T14:22:50.689Z,7.70
2019-03-11T14:25:19.235Z,7.60
2019-03-11T14:27:47.639Z,7.30
2019-03-11T14:30:20.824Z,7.00
2019-03-11T14:32:49.403Z,7.00
2019-03-11T14:35:19.485Z,7.00
2019-03-11T14:37:47.914Z,7.00
2019-03-11T14:40:20.395Z,6.70
2019-03-11T14:42:49.099Z,6.50
2019-03-11T14:45:21.047Z,6.70
2019-03-11T14:47:49.543Z,7.00
2019-03-11T14:50:18.610Z,7.10
2019-03-11T14:52:47.023Z,7.10
2019-03-11T14:55:16.914Z,7.20
2019-03-11T14:57:45.405Z,7.30
2019-03-11T15:00:20.526Z,7.10
2019-03-11T15:02:49.094Z,6.80
2019-03-11T15:05:21.019Z,6.60
2019-03-11T15:07:49.537Z,6.60
2019-03-11T15:10:21.117Z,6.60
2019-03-11T15:12:50.542Z,6.70
2019-03-11T15:15:24.195Z,6.70
2019-03-11T15:17:52.737Z,6.70
2019-03-11T15:20:21.225Z,6.60
2019-03-11T15:22:49.643Z,6.70
2019-03-11T15:25:18.641Z,6.70
2019-03-11T15:27:47.150Z,6.80
2019-03-11T15:30:23.199Z,6.90
2019-03-11T15:32:51.653Z,6.90
2019-03-11T15:35:20.560Z,7.00
2019-03-11T15:37:49.125Z,7.00
2019-03-11T15:40:18.335Z,6.90
2019-03-11T15:42:47.179Z,6.90
2019-03-11T15:45:19.600Z,6.90
2019-03-11T15:47:48.131Z,6.90
2019-03-11T15:50:22.398Z,6.90
2019-03-11T15:52:50.873Z,6.90
2019-03-11T15:55:20.347Z,6.90
2019-03-11T15:57:48.820Z,6.90
2019-03-11T16:00:21.580Z,7.00
2019-03-11T16:02:50.146Z,7.10
2019-03-11T16:05:22.704Z,7.10
2019-03-11T16:07:51.279Z,7.10
2019-03-11T16:10:19.902Z,7.10
2019-03-11T16:12:48.650Z,7.00
2019-03-11T16:15:17.597Z,6.90
2019-03-11T16:17:46.215Z,6.80
2019-03-11T16:20:17.237Z,6.70
2019-03-11T16:22:45.795Z,6.70
2019-03-11T16:25:14.402Z,6.70
2019-03-11T16:27:42.834Z,6.70
2019-03-11T16:30:22.070Z,6.60
2019-03-11T16:33:00.458Z,6.60
2019-03-11T16:35:22.270Z,6.50
2019-03-11T16:37:50.681Z,6.50
2019-03-11T16:40:19.196Z,6.50
2019-03-11T16:42:47.768Z,6.40
2019-03-11T16:45:18.264Z,6.40
2019-03-11T16:47:47.924Z,6.40
2019-03-11T16:50:20.442Z,6.40
2019-03-11T16:52:48.869Z,6.30
2019-03-11T16:55:41.571Z,6.30
2019-03-11T16:58:09.996Z,6.20
2019-03-11T17:00:43.546Z,6.20
2019-03-11T17:03:11.943Z,6.10
2019-03-11T17:05:43.551Z,6.10
2019-03-11T17:08:12.084Z,6.10
2019-03-11T17:10:40.508Z,6.10
2019-03-11T17:13:09.039Z,6.10
2019-03-11T17:15:37.565Z,6.10
2019-03-11T17:18:05.991Z,6.00
2019-03-11T17:20:34.431Z,5.90
2019-03-11T17:23:02.850Z,5.80
2019-03-11T17:25:32.596Z,5.80
2019-03-11T17:28:01.022Z,5.70
2019-03-11T17:30:29.560Z,5.70
2019-03-11T17:32:57.972Z,5.70
2019-03-11T17:35:26.486Z,5.60
2019-03-11T17:37:54.914Z,5.70
2019-03-11T17:40:25.223Z,5.70
2019-03-11T17:42:53.772Z,5.70
2019-03-11T17:45:22.238Z,5.60
2019-03-11T17:47:50.667Z,5.60
2019-03-11T17:50:21.183Z,5.50
2019-03-11T17:52:49.743Z,5.50
2019-03-11T17:55:18.991Z,5.40
2019-03-11T17:57:47.763Z,5.40
2019-03-11T18:00:30.273Z,5.40
2019-03-11T18:02:58.717Z,5.40
2019-03-11T18:05:27.130Z,5.40
2019-03-11T18:07:55.607Z,5.30
2019-03-11T18:10:25.224Z,5.30
2019-03-11T18:12:53.687Z,5.30
2019-03-11T18:15:22.104Z,5.20
2019-03-11T18:17:50.670Z,5.20
2019-03-11T18:20:21.021Z,5.20
2019-03-11T18:22:49.613Z,5.00
2019-03-11T18:25:19.096Z,5.00
2019-03-11T18:27:47.571Z,5.00
2019-03-11T18:30:21.016Z,5.10
2019-03-11T18:32:49.802Z,5.10
2019-03-11T18:35:19.766Z,5.10
2019-03-11T18:37:48.301Z,5.10
2019-03-11T18:40:20.121Z,5.10
2019-03-11T18:42:48.642Z,5.10
2019-03-11T18:45:17.326Z,4.90
2019-03-11T18:47:45.850Z,4.90
2019-03-11T18:50:21.953Z,4.90
2019-03-11T18:52:50.431Z,5.00
2019-03-11T18:55:18.976Z,5.00
2019-03-11T18:57:47.493Z,5.10
2019-03-11T19:00:20.099Z,5.10
2019-03-11T19:02:48.662Z,5.00
2019-03-11T19:05:24.305Z,5.00
2019-03-11T19:07:54.913Z,4.90
2019-03-11T19:10:23.015Z,4.90
2019-03-11T19:12:51.513Z,4.90
2019-03-11T19:15:21.300Z,4.80
2019-03-11T19:17:49.871Z,4.90
2019-03-11T19:20:22.823Z,4.90
2019-03-11T19:23:02.069Z,4.80
2019-03-11T19:25:32.052Z,4.70
2019-03-11T19:28:00.589Z,4.50
2019-03-11T19:30:29.143Z,4.40
2019-03-11T19:32:57.656Z,4.20
2019-03-11T19:35:26.098Z,4.10
2019-03-11T19:37:54.495Z,4.00
2019-03-11T19:40:26.672Z,3.90
2019-03-11T19:42:55.150Z,3.80
2019-03-11T19:45:23.689Z,3.70
2019-03-11T19:47:52.297Z,3.60
2019-03-11T19:50:22.130Z,3.60
2019-03-11T19:52:58.302Z,3.50
2019-03-11T19:55:20.774Z,3.60
2019-03-11T19:57:49.313Z,3.60
2019-03-11T20:00:24.818Z,3.60
2019-03-11T20:02:53.439Z,3.50
2019-03-11T20:05:24.839Z,3.50
2019-03-11T20:07:53.373Z,3.50
2019-03-11T20:10:23.451Z,3.50
2019-03-11T20:12:51.964Z,3.70
2019-03-11T20:15:20.533Z,3.70
2019-03-11T20:17:48.932Z,3.70
2019-03-11T20:20:20.886Z,3.60
2019-03-11T20:22:52.806Z,3.50
2019-03-11T20:25:33.318Z,3.30
2019-03-11T20:28:01.797Z,3.20
2019-03-11T20:30:30.305Z,3.10
2019-03-11T20:32:58.838Z,3.10
2019-03-11T20:35:28.493Z,3.10
2019-03-11T20:37:56.958Z,3.20
2019-03-11T20:40:25.484Z,3.20
2019-03-11T20:42:54.282Z,3.30
2019-03-11T20:45:22.705Z,3.30
2019-03-11T20:47:51.139Z,3.30
2019-03-11T20:50:20.860Z,3.40
2019-03-11T20:52:49.380Z,3.60
2019-03-11T20:55:19.777Z,3.50
2019-03-11T20:57:48.272Z,3.50
2019-03-11T21:00:23.906Z,3.50
2019-03-11T21:02:52.377Z,3.40
2019-03-11T21:05:37.926Z,3.50
2019-03-11T21:08:06.409Z,3.50
2019-03-11T21:10:37.558Z,3.60
2019-03-11T21:13:06.107Z,3.60
2019-03-11T21:15:34.618Z,3.60
2019-03-11T21:18:03.155Z,3.60
2019-03-11T21:20:31.768Z,3.60
2019-03-11T21:23:00.365Z,3.60
2019-03-11T21:25:28.806Z,3.50
2019-03-11T21:27:57.336Z,3.40
2019-03-11T21:30:26.967Z,3.40
2019-03-11T21:32:55.548Z,3.20
2019-03-11T21:35:24.300Z,3.10
2019-03-11T21:37:52.728Z,3.00
2019-03-11T21:40:22.359Z,2.90
2019-03-11T21:42:50.838Z,2.90
2019-03-11T21:45:19.459Z,2.80
2019-03-11T21:47:50.766Z,2.80
2019-03-11T21:50:25.574Z,2.70
2019-03-11T21:52:54.074Z,2.80
2019-03-11T21:55:22.742Z,2.80
2019-03-11T21:57:51.513Z,2.70
2019-03-11T22:00:34.109Z,2.70
2019-03-11T22:02:54.825Z,2.60
2019-03-11T22:05:23.307Z,2.50
2019-03-11T22:07:51.843Z,2.40
2019-03-11T22:10:20.730Z,2.40
2019-03-11T22:12:49.330Z,2.30
2019-03-11T22:15:20.288Z,2.30
2019-03-11T22:17:48.767Z,2.30
2019-03-11T22:20:17.753Z,2.20
2019-03-11T22:22:46.186Z,2.20
2019-03-11T22:25:19.727Z,2.20
2019-03-11T22:27:48.211Z,2.20
2019-03-11T22:30:24.557Z,2.40
2019-03-11T22:32:53.059Z,2.40
2019-03-11T22:35:21.575Z,2.40
2019-03-11T22:37:50.013Z,2.40
2019-03-11T22:40:19.293Z,2.40
2019-03-11T22:42:47.959Z,2.40
2019-03-11T22:45:21.858Z,2.40
2019-03-11T22:47:51.028Z,2.40
2019-03-11T22:50:19.616Z,2.30
2019-03-11T22:52:48.038Z,2.30
2019-03-11T22:55:18.298Z,2.20
2019-03-11T22:57:46.722Z,2.00
2019-03-11T23:00:28.752Z,1.90
2019-03-11T23:02:57.248Z,1.80
2019-03-11T23:05:25.758Z,1.70
2019-03-11T23:07:54.178Z,1.60
2019-03-11T23:10:22.672Z,1.60
2019-03-11T23:12:51.114Z,1.70
2019-03-11T23:15:20.695Z,1.70
2019-03-11T23:17:51.843Z,1.80
2019-03-11T23:20:20.307Z,1.80
2019-03-11T23:22:48.737Z,1.80
2019-03-11T23:25:18.066Z,1.70
2019-03-11T23:27:46.591Z,1.70
2019-03-11T23:30:15.449Z,1.70
2019-03-11T23:32:43.902Z,1.60
2019-03-11T23:35:12.394Z,1.50
2019-03-11T23:37:40.855Z,1.50
2019-03-11T23:40:10.731Z,1.50
2019-03-11T23:42:39.182Z,1.60
2019-03-11T23:45:09.721Z,1.70
2019-03-11T23:47:38.180Z,1.80
2019-03-11T23:50:19.195Z,1.70
2019-03-11T23:52:46.740Z,1.70
2019-03-11T23:55:15.229Z,1.70
2019-03-11T23:57:43.663Z,1.70
